createdAt,value
2022-09-20T00:01:34.388Z,9.40
2022-09-20T00:04:06.958Z,8.70
2022-09-20T00:06:37.038Z,9.43
2022-09-20T00:09:06.621Z,9.00
2022-09-20T00:11:36.832Z,9.10
2022-09-20T00:14:08.798Z,9.17
2022-09-20T00:16:40.945Z,9.00
2022-09-20T00:19:10.491Z,9.20
2022-09-20T00:21:40.164Z,9.20
2022-09-20T00:24:08.490Z,9.13
2022-09-20T00:26:36.730Z,9.27
2022-09-20T00:29:06.106Z,9.17
2022-09-20T00:31:35.756Z,9.00
2022-09-20T00:34:21.701Z,9.13
2022-09-20T00:36:51.415Z,9.00
2022-09-20T00:39:19.712Z,9.47
2022-09-20T00:41:48.151Z,9.07
2022-09-20T00:44:51.276Z,9.20
2022-09-20T00:47:28.682Z,9.13
2022-09-20T00:50:01.352Z,9.37
2022-09-20T00:52:32.010Z,9.10
2022-09-20T00:55:01.516Z,9.53
2022-09-20T00:57:35.208Z,9.37
2022-09-20T01:00:07.432Z,9.60
2022-09-20T01:02:40.219Z,9.63
2022-09-20T01:05:10.620Z,9.07
2022-09-20T01:07:40.830Z,9.00
2022-09-20T01:10:09.915Z,9.47
2022-09-20T01:12:40.683Z,9.17
2022-09-20T01:15:11.174Z,9.40
2022-09-20T01:17:43.439Z,9.40
2022-09-20T01:20:20.585Z,9.47
2022-09-20T01:23:17.538Z,9.60
2022-09-20T01:26:31.030Z,9.50
2022-09-20T01:29:15.500Z,9.30
2022-09-20T01:31:54.274Z,9.07
2022-09-20T01:34:30.784Z,9.00
2022-09-20T01:37:07.697Z,9.53
2022-09-20T01:39:48.733Z,9.63
2022-09-20T01:42:17.191Z,9.60
2022-09-20T01:45:03.156Z,10.10
2022-09-20T01:47:40.080Z,9.97
2022-09-20T01:50:21.599Z,10.50
2022-09-20T01:53:22.579Z,9.70
2022-09-20T01:56:27.042Z,9.93
2022-09-20T01:59:24.083Z,9.43
2022-09-20T02:02:35.487Z,9.50
2022-09-20T02:05:25.058Z,9.60
2022-09-20T02:08:10.063Z,9.93
2022-09-20T02:11:06.733Z,10.50
2022-09-20T02:13:56.801Z,9.33
2022-09-20T02:16:51.770Z,9.90
2022-09-20T02:20:01.348Z,9.43
2022-09-20T02:22:48.250Z,9.83
2022-09-20T02:25:44.599Z,9.60
2022-09-20T02:28:27.128Z,9.40
2022-09-20T02:31:05.668Z,9.67
2022-09-20T02:34:07.010Z,10.03
2022-09-20T02:36:49.777Z,9.43
2022-09-20T02:39:22.469Z,9.53
2022-09-20T02:42:00.555Z,9.47
2022-09-20T02:44:55.574Z,9.47
2022-09-20T02:47:34.231Z,9.50
2022-09-20T02:50:20.007Z,9.50
2022-09-20T02:53:05.024Z,9.43
2022-09-20T02:55:43.487Z,9.30
2022-09-20T02:58:35.029Z,9.80
2022-09-20T03:01:14.397Z,9.03
2022-09-20T03:03:54.634Z,8.93
2022-09-20T03:06:31.496Z,9.30
2022-09-20T03:09:11.085Z,9.13
2022-09-20T03:11:49.058Z,8.90
2022-09-20T03:14:23.776Z,9.10
2022-09-20T03:17:17.450Z,9.50
2022-09-20T03:20:05.864Z,9.27
2022-09-20T03:22:50.807Z,8.90
2022-09-20T03:25:51.422Z,9.07
2022-09-20T03:28:54.519Z,9.40
2022-09-20T03:31:40.236Z,9.67
2022-09-20T03:34:25.199Z,9.17
2022-09-20T03:37:17.101Z,8.97
2022-09-20T03:40:28.409Z,9.00
2022-09-20T03:43:12.298Z,9.07
2022-09-20T03:45:55.861Z,9.00
2022-09-20T03:49:18.722Z,9.17
2022-09-20T03:51:55.703Z,9.20
2022-09-20T03:54:50.991Z,9.37
2022-09-20T03:57:34.629Z,9.33
2022-09-20T04:00:23.971Z,9.07
2022-09-20T04:03:12.959Z,9.67
2022-09-20T04:05:54.398Z,9.37
2022-09-20T04:08:49.587Z,8.97
2022-09-20T04:11:27.014Z,9.23
2022-09-20T04:14:08.085Z,9.27
2022-09-20T04:16:46.242Z,9.70
2022-09-20T04:19:27.590Z,9.37
2022-09-20T04:22:00.546Z,9.40
2022-09-20T04:24:43.119Z,9.40
2022-09-20T04:27:19.122Z,9.30
2022-09-20T04:29:54.289Z,9.63
2022-09-20T04:32:32.338Z,9.07
2022-09-20T04:35:24.593Z,9.53
2022-09-20T04:37:54.410Z,9.20
2022-09-20T04:40:38.562Z,9.30
2022-09-20T04:44:13.089Z,9.27
2022-09-20T04:47:16.091Z,9.40
2022-09-20T04:50:36.460Z,9.43
2022-09-20T04:53:37.300Z,9.37
2022-09-20T04:56:23.308Z,9.77
2022-09-20T04:59:07.847Z,9.70
2022-09-20T05:02:46.985Z,9.50
2022-09-20T05:06:15.613Z,9.50
2022-09-20T05:09:17.216Z,9.60
2022-09-20T05:12:54.609Z,9.50
2022-09-20T05:15:37.475Z,9.60
2022-09-20T05:18:51.932Z,9.63
2022-09-20T05:21:51.048Z,9.40
2022-09-20T05:24:46.920Z,9.53
2022-09-20T05:27:34.735Z,9.93
2022-09-20T05:30:09.142Z,9.33
2022-09-20T05:32:47.014Z,9.80
2022-09-20T05:35:25.314Z,9.40
2022-09-20T05:38:06.621Z,9.40
2022-09-20T05:40:47.421Z,9.50
2022-09-20T05:43:27.054Z,9.63
2022-09-20T05:46:14.902Z,10.30
2022-09-20T05:48:56.553Z,9.80
2022-09-20T05:51:45.799Z,9.87
2022-09-20T05:54:33.973Z,9.80
2022-09-20T05:57:20.259Z,9.70
2022-09-20T06:00:01.808Z,9.43
2022-09-20T06:02:49.856Z,9.60
2022-09-20T06:05:29.754Z,9.60
2022-09-20T06:08:29.671Z,9.60
2022-09-20T06:11:15.851Z,9.40
2022-09-20T06:14:01.147Z,10.17
2022-09-20T06:16:41.280Z,9.27
2022-09-20T06:19:22.561Z,9.80
2022-09-20T06:21:54.943Z,9.83
2022-09-20T06:24:39.308Z,9.37
2022-09-20T06:27:15.582Z,9.23
2022-09-20T06:29:52.375Z,9.80
2022-09-20T06:32:21.117Z,9.67
2022-09-20T06:34:50.085Z,10.03
2022-09-20T06:38:00.508Z,9.67
2022-09-20T06:40:57.570Z,9.40
2022-09-20T06:43:30.970Z,9.50
2022-09-20T06:45:59.481Z,9.50
2022-09-20T06:48:29.884Z,10.00
2022-09-20T06:50:58.396Z,9.90
2022-09-20T06:53:30.335Z,9.73
2022-09-20T06:55:59.710Z,10.03
2022-09-20T06:58:29.646Z,10.17
2022-09-20T07:00:57.914Z,9.90
2022-09-20T07:03:26.256Z,9.90
2022-09-20T07:05:54.575Z,9.63
2022-09-20T07:08:22.839Z,9.40
2022-09-20T07:10:51.068Z,9.77
2022-09-20T07:13:21.508Z,9.83
2022-09-20T07:15:51.243Z,9.67
2022-09-20T07:18:19.607Z,9.43
2022-09-20T07:20:47.858Z,10.00
2022-09-20T07:23:16.861Z,10.20
2022-09-20T07:25:45.160Z,10.00
2022-09-20T07:28:13.444Z,9.80
2022-09-20T07:30:41.767Z,10.00
2022-09-20T07:33:12.060Z,9.70
2022-09-20T07:35:41.635Z,9.97
2022-09-20T07:38:10.383Z,10.17
2022-09-20T07:40:38.707Z,9.60
2022-09-20T07:43:07.038Z,9.87
2022-09-20T07:45:39.680Z,10.30
2022-09-20T07:48:09.040Z,10.00
2022-09-20T07:50:38.728Z,10.10
2022-09-20T07:53:07.010Z,10.00
2022-09-20T07:55:35.718Z,10.10
2022-09-20T07:58:04.020Z,10.30
2022-09-20T08:00:32.264Z,10.10
2022-09-20T08:03:01.314Z,10.10
2022-09-20T08:05:29.669Z,10.17
2022-09-20T08:08:01.110Z,10.03
2022-09-20T08:10:29.370Z,9.97
2022-09-20T08:15:46.204Z,9.80
2022-09-20T08:18:14.950Z,10.23
2022-09-20T08:20:43.176Z,9.60
2022-09-20T08:23:23.327Z,10.20
2022-09-20T08:25:51.935Z,9.87
2022-09-20T08:28:20.211Z,10.20
2022-09-20T08:30:48.442Z,9.93
2022-09-20T08:33:16.757Z,9.43
2022-09-20T08:35:45.061Z,9.77
2022-09-20T08:41:07.663Z,9.90
2022-09-20T08:43:45.559Z,9.57
2022-09-20T08:46:23.261Z,9.33
2022-09-20T08:48:53.260Z,9.40
2022-09-20T08:51:23.474Z,9.40
2022-09-20T08:53:55.782Z,9.10
2022-09-20T08:56:24.771Z,9.57
2022-09-20T08:58:53.346Z,9.67
2022-09-20T09:01:24.830Z,9.40
2022-09-20T09:03:55.769Z,9.47
2022-09-20T09:06:25.738Z,9.23
2022-09-20T09:08:58.434Z,9.30
2022-09-20T09:11:26.665Z,9.40
2022-09-20T09:14:01.426Z,9.13
2022-09-20T09:16:35.811Z,9.30
2022-09-20T09:19:33.897Z,9.40
2022-09-20T09:22:05.574Z,9.60
2022-09-20T09:24:35.259Z,9.87
2022-09-20T09:27:10.291Z,9.60
2022-09-20T09:29:52.153Z,9.60
2022-09-20T09:32:28.492Z,9.90
2022-09-20T09:34:57.333Z,9.20
2022-09-20T09:37:30.550Z,9.90
2022-09-20T09:40:19.891Z,9.80
2022-09-20T09:42:53.632Z,10.20
2022-09-20T09:45:38.686Z,9.70
2022-09-20T09:48:25.304Z,9.40
2022-09-20T09:51:11.357Z,10.00
2022-09-20T09:53:40.825Z,9.80
2022-09-20T09:56:31.882Z,9.90
2022-09-20T09:59:20.778Z,9.83
2022-09-20T10:02:02.600Z,10.10
2022-09-20T10:04:37.606Z,9.70
2022-09-20T10:07:14.719Z,10.23
2022-09-20T10:10:01.400Z,9.70
2022-09-20T10:12:45.964Z,9.70
2022-09-20T10:15:32.567Z,9.93
2022-09-20T10:18:26.841Z,9.90
2022-09-20T10:21:08.425Z,9.70
2022-09-20T10:24:09.046Z,9.73
2022-09-20T10:27:03.361Z,9.80
2022-09-20T10:29:47.457Z,10.20
2022-09-20T10:32:33.116Z,9.90
2022-09-20T10:35:21.276Z,9.97
2022-09-20T10:38:12.579Z,10.40
2022-09-20T10:41:15.375Z,10.27
2022-09-20T10:44:05.078Z,10.57
2022-09-20T10:46:53.119Z,10.80
2022-09-20T10:49:35.404Z,10.40
2022-09-20T10:52:37.335Z,10.77
2022-09-20T10:55:25.569Z,10.50
2022-09-20T10:58:43.545Z,10.20
2022-09-20T11:01:21.368Z,10.10
2022-09-20T11:04:18.558Z,10.63
2022-09-20T11:06:57.315Z,10.63
2022-09-20T11:09:32.650Z,10.30
2022-09-20T11:12:12.545Z,10.50
2022-09-20T11:14:46.659Z,10.50
2022-09-20T11:17:21.555Z,10.20
2022-09-20T11:20:03.524Z,10.67
2022-09-20T11:22:43.599Z,10.40
2022-09-20T11:25:20.888Z,9.87
2022-09-20T11:27:56.689Z,10.00
2022-09-20T11:30:26.099Z,9.90
2022-09-20T11:32:59.019Z,10.00
2022-09-20T11:35:34.010Z,9.73
2022-09-20T11:38:14.592Z,9.50
2022-09-20T11:40:49.380Z,9.60
2022-09-20T11:43:19.300Z,9.60
2022-09-20T11:45:52.245Z,9.57
2022-09-20T11:48:26.232Z,9.50
2022-09-20T11:51:51.021Z,9.30
2022-09-20T11:54:48.621Z,9.10
2022-09-20T11:57:17.918Z,8.90
2022-09-20T11:59:54.653Z,9.00
2022-09-20T12:02:35.263Z,8.97
2022-09-20T12:05:06.061Z,8.97
2022-09-20T12:07:39.741Z,8.73
2022-09-20T12:10:23.119Z,9.20
2022-09-20T12:12:58.089Z,9.20
2022-09-20T12:15:31.210Z,9.00
2022-09-20T12:18:33.159Z,8.80
2022-09-20T12:21:08.313Z,8.90
2022-09-20T12:24:26.649Z,8.80
2022-09-20T12:26:57.448Z,8.93
2022-09-20T12:30:04.045Z,8.93
2022-09-20T12:32:52.031Z,8.97
2022-09-20T12:36:17.856Z,8.97
2022-09-20T12:39:06.516Z,8.87
2022-09-20T12:41:52.930Z,8.80
2022-09-20T12:44:41.050Z,8.77
2022-09-20T12:47:21.440Z,8.90
2022-09-20T12:50:11.677Z,8.70
2022-09-20T12:52:53.812Z,8.67
2022-09-20T12:55:41.273Z,9.37
2022-09-20T12:58:32.381Z,8.70
2022-09-20T13:01:31.073Z,8.70
2022-09-20T13:04:55.708Z,8.70
2022-09-20T13:07:40.088Z,9.03
2022-09-20T13:10:36.005Z,8.90
2022-09-20T13:13:15.140Z,8.70
2022-09-20T13:15:52.448Z,8.87
2022-09-20T13:18:22.205Z,8.70
2022-09-20T13:20:51.807Z,8.70
2022-09-20T13:23:24.866Z,8.70
2022-09-20T13:25:53.996Z,8.87
2022-09-20T13:28:33.491Z,8.50
2022-09-20T13:31:35.785Z,8.87
2022-09-20T13:34:30.891Z,8.87
2022-09-20T13:36:59.568Z,8.60
2022-09-20T13:39:35.290Z,8.50
2022-09-20T13:42:11.694Z,8.50
2022-09-20T13:44:40.446Z,8.67
2022-09-20T13:47:26.461Z,8.73
2022-09-20T13:50:01.034Z,8.40
2022-09-20T13:52:32.282Z,8.50
2022-09-20T13:55:01.117Z,8.40
2022-09-20T13:57:31.423Z,8.77
2022-09-20T14:00:01.670Z,8.73
2022-09-20T14:02:42.693Z,8.60
2022-09-20T14:05:19.779Z,8.53
2022-09-20T14:07:49.204Z,8.93
2022-09-20T14:10:37.082Z,8.60
2022-09-20T14:13:08.354Z,8.70
2022-09-20T14:15:40.703Z,8.57
2022-09-20T14:18:15.962Z,8.83
2022-09-20T14:20:45.232Z,8.53
2022-09-20T14:23:22.866Z,8.63
2022-09-20T14:26:08.758Z,8.63
2022-09-20T14:28:37.079Z,8.70
2022-09-20T14:31:09.987Z,8.60
2022-09-20T14:33:44.250Z,8.60
2022-09-20T14:36:16.552Z,8.53
2022-09-20T14:38:46.705Z,8.50
2022-09-20T14:41:33.946Z,8.70
2022-09-20T14:44:03.677Z,8.57
2022-09-20T14:46:35.872Z,8.60
2022-09-20T14:49:33.118Z,8.40
2022-09-20T14:52:38.281Z,8.40
2022-09-20T14:55:28.200Z,8.47
2022-09-20T14:58:05.805Z,8.70
2022-09-20T15:00:50.046Z,8.67
2022-09-20T15:03:26.931Z,8.40
2022-09-20T15:05:56.764Z,8.63
2022-09-20T15:08:25.192Z,8.87
2022-09-20T15:10:53.580Z,8.90
2022-09-20T15:13:21.976Z,9.00
2022-09-20T15:15:52.586Z,8.87
2022-09-20T15:18:24.044Z,8.60
2022-09-20T15:20:53.300Z,8.40
2022-09-20T15:23:23.437Z,8.63
2022-09-20T15:25:53.593Z,8.50
2022-09-20T15:28:22.487Z,8.70
2022-09-20T15:30:52.544Z,8.70
2022-09-20T15:33:22.416Z,8.90
2022-09-20T15:35:50.847Z,8.57
2022-09-20T15:38:20.054Z,8.67
2022-09-20T15:40:50.778Z,8.53
2022-09-20T15:43:24.007Z,8.53
2022-09-20T15:45:55.016Z,8.60
2022-09-20T15:48:26.282Z,8.87
2022-09-20T15:51:03.277Z,8.70
2022-09-20T15:53:34.320Z,8.67
2022-09-20T15:56:15.255Z,8.67
2022-09-20T15:58:48.189Z,8.87
2022-09-20T16:01:18.153Z,8.83
2022-09-20T16:03:48.992Z,8.60
2022-09-20T16:06:17.483Z,8.67
2022-09-20T16:08:45.730Z,8.50
2022-09-20T16:11:22.236Z,8.90
2022-09-20T16:13:54.781Z,8.80
2022-09-20T16:16:23.728Z,8.53
2022-09-20T16:19:09.522Z,8.63
2022-09-20T16:21:40.088Z,8.60
2022-09-20T16:24:09.577Z,8.60
2022-09-20T16:26:39.739Z,8.40
2022-09-20T16:29:08.764Z,8.60
2022-09-20T16:31:40.843Z,8.50
2022-09-20T16:34:31.509Z,8.50
2022-09-20T16:37:02.248Z,8.80
2022-09-20T16:39:32.439Z,8.80
2022-09-20T16:42:04.753Z,9.07
2022-09-20T16:44:35.321Z,8.40
2022-09-20T16:47:05.284Z,8.90
2022-09-20T16:49:34.914Z,8.60
2022-09-20T16:52:05.407Z,8.70
2022-09-20T16:54:33.825Z,9.00
2022-09-20T16:57:03.507Z,8.67
2022-09-20T16:59:31.942Z,8.70
2022-09-20T17:02:00.250Z,8.57
2022-09-20T17:04:28.573Z,8.73
2022-09-20T17:06:56.873Z,8.80
2022-09-20T17:09:25.408Z,8.80
2022-09-20T17:11:53.824Z,8.70
2022-09-20T17:14:24.995Z,8.70
2022-09-20T17:16:53.320Z,8.83
2022-09-20T17:19:22.173Z,9.00
2022-09-20T17:21:51.787Z,8.80
2022-09-20T17:24:22.223Z,9.10
2022-09-20T17:26:51.695Z,8.97
2022-09-20T17:29:41.747Z,9.10
2022-09-20T17:32:10.111Z,8.90
2022-09-20T17:34:38.619Z,8.80
2022-09-20T17:37:06.928Z,8.90
2022-09-20T17:39:35.189Z,9.00
2022-09-20T17:42:03.559Z,8.80
2022-09-20T17:44:35.146Z,8.97
2022-09-20T17:47:06.298Z,9.10
2022-09-20T17:49:34.728Z,8.90
2022-09-20T17:52:04.338Z,8.80
2022-09-20T17:54:32.967Z,9.13
2022-09-20T17:57:01.617Z,9.10
2022-09-20T17:59:29.868Z,9.03
2022-09-20T18:01:58.471Z,8.83
2022-09-20T18:04:28.151Z,8.70
2022-09-20T18:06:56.505Z,9.47
2022-09-20T18:09:27.737Z,8.97
2022-09-20T18:11:57.558Z,9.00
2022-09-20T18:14:28.464Z,9.07
2022-09-20T18:17:01.173Z,9.30
2022-09-20T18:19:34.158Z,10.27
2022-09-20T18:22:03.042Z,10.27
2022-09-20T18:24:31.803Z,9.90
2022-09-20T18:27:00.856Z,9.70
2022-09-20T18:29:29.499Z,9.37
2022-09-20T18:31:59.777Z,9.47
2022-09-20T18:34:32.120Z,9.67
2022-09-20T18:37:03.925Z,10.07
2022-09-20T18:39:34.866Z,9.90
2022-09-20T18:42:04.137Z,9.37
2022-09-20T18:44:34.324Z,9.63
2022-09-20T18:47:03.840Z,9.60
2022-09-20T18:49:34.453Z,9.50
2022-09-20T18:52:03.896Z,9.40
2022-09-20T18:54:33.377Z,9.57
2022-09-20T18:57:02.666Z,9.37
2022-09-20T18:59:31.551Z,9.23
2022-09-20T19:02:25.602Z,9.27
2022-09-20T19:05:26.439Z,9.57
2022-09-20T19:08:18.363Z,9.10
2022-09-20T19:10:53.519Z,9.20
2022-09-20T19:13:36.378Z,9.20
2022-09-20T19:16:18.846Z,9.47
2022-09-20T19:19:21.156Z,9.70
2022-09-20T19:22:00.891Z,8.97
2022-09-20T19:24:55.689Z,9.60
2022-09-20T19:27:26.051Z,9.90
2022-09-20T19:29:55.860Z,9.20
2022-09-20T19:32:26.371Z,9.20
2022-09-20T19:35:01.583Z,9.43
2022-09-20T19:37:40.815Z,9.00
2022-09-20T19:40:23.728Z,9.70
2022-09-20T19:43:13.208Z,9.57
2022-09-20T19:45:48.323Z,9.67
2022-09-20T19:48:24.471Z,9.50
2022-09-20T19:50:54.638Z,9.50
2022-09-20T19:53:27.675Z,9.50
2022-09-20T19:56:00.351Z,9.07
2022-09-20T19:58:30.393Z,9.30
2022-09-20T20:01:00.085Z,9.23
2022-09-20T20:03:29.985Z,9.20
2022-09-20T20:06:07.818Z,9.67
2022-09-20T20:08:46.132Z,9.20
2022-09-20T20:11:38.324Z,9.80
2022-09-20T20:14:19.136Z,10.00
2022-09-20T20:17:04.929Z,9.80
2022-09-20T20:19:51.238Z,9.70
2022-09-20T20:22:36.731Z,9.50
2022-09-20T20:25:20.088Z,9.57
2022-09-20T20:27:48.652Z,9.67
2022-09-20T20:30:17.559Z,9.80
2022-09-20T20:32:46.532Z,9.73
2022-09-20T20:35:17.258Z,10.00
2022-09-20T20:37:47.708Z,9.30
2022-09-20T20:40:17.539Z,9.60
2022-09-20T20:42:46.729Z,9.10
2022-09-20T20:45:15.616Z,9.60
2022-09-20T20:47:44.187Z,9.50
2022-09-20T20:50:13.194Z,9.60
2022-09-20T20:52:42.451Z,9.70
2022-09-20T20:55:11.836Z,9.20
2022-09-20T20:57:43.028Z,9.70
2022-09-20T21:00:13.436Z,9.40
2022-09-20T21:02:42.022Z,9.33
2022-09-20T21:05:10.744Z,9.00
2022-09-20T21:07:39.305Z,9.57
2022-09-20T21:10:09.583Z,9.20
2022-09-20T21:12:37.913Z,9.80
2022-09-20T21:15:09.099Z,9.33
2022-09-20T21:17:39.395Z,9.70
2022-09-20T21:20:09.989Z,9.40
2022-09-20T21:22:39.340Z,9.23
2022-09-20T21:25:09.312Z,9.50
2022-09-20T21:27:38.046Z,9.30
2022-09-20T21:30:10.838Z,9.70
2022-09-20T21:32:40.373Z,9.33
2022-09-20T21:35:11.957Z,9.87
2022-09-20T21:37:41.348Z,9.33
2022-09-20T21:40:11.324Z,9.17
2022-09-20T21:42:39.892Z,9.30
2022-09-20T21:45:11.199Z,9.27
2022-09-20T21:47:39.988Z,9.40
2022-09-20T21:50:10.083Z,9.80
2022-09-20T21:52:38.357Z,9.27
2022-09-20T21:55:10.782Z,9.43
2022-09-20T21:57:41.382Z,9.60
2022-09-20T22:00:13.659Z,9.43
2022-09-20T22:02:42.647Z,9.60
2022-09-20T22:05:12.592Z,8.73
2022-09-20T22:07:41.323Z,9.93
2022-09-20T22:10:10.584Z,9.57
2022-09-20T22:12:38.916Z,9.27
2022-09-20T22:15:09.248Z,9.47
2022-09-20T22:17:38.891Z,9.17
2022-09-20T22:20:08.785Z,9.70
2022-09-20T22:22:37.104Z,9.20
2022-09-20T22:25:06.154Z,9.80
2022-09-20T22:27:34.523Z,9.27
2022-09-20T22:30:05.076Z,9.10
2022-09-20T22:32:33.524Z,9.57
2022-09-20T22:35:03.231Z,9.27
2022-09-20T22:37:31.523Z,9.17
2022-09-20T22:39:59.948Z,9.23
2022-09-20T22:42:28.345Z,9.70
2022-09-20T22:44:56.952Z,9.07
2022-09-20T22:47:25.276Z,9.57
2022-09-20T22:49:53.620Z,9.23
2022-09-20T22:52:23.343Z,9.00
2022-09-20T22:54:51.624Z,10.00
2022-09-20T22:57:20.159Z,9.30
2022-09-20T22:59:48.436Z,9.10
2022-09-20T23:02:16.741Z,9.10
2022-09-20T23:04:45.019Z,8.97
2022-09-20T23:07:13.328Z,9.10
2022-09-20T23:09:42.989Z,9.33
2022-09-20T23:12:11.355Z,9.67
2022-09-20T23:14:39.635Z,9.30
2022-09-20T23:17:07.916Z,9.40
2022-09-20T23:19:36.259Z,9.17
2022-09-20T23:22:04.658Z,9.00
2022-09-20T23:24:32.913Z,9.20
2022-09-20T23:27:02.645Z,9.30
2022-09-20T23:29:32.524Z,9.53
2022-09-20T23:32:00.826Z,9.50
2022-09-20T23:34:29.133Z,9.63
2022-09-20T23:36:57.442Z,9.10
2022-09-20T23:39:25.790Z,9.13
2022-09-20T23:41:54.045Z,9.27
2022-09-20T23:44:23.638Z,9.20
2022-09-20T23:46:51.963Z,9.20
2022-09-20T23:49:20.231Z,9.47
2022-09-20T23:51:48.524Z,9.20
2022-09-20T23:54:16.826Z,9.60
2022-09-20T23:56:45.082Z,9.20
2022-09-20T23:59:13.332Z,9.10
